Time;durP1;ratioP1;P1;durP2;ratioP2;P2;SDS_P1;SDS_P2;PMS_P1;PMS_P2;Temp;Humidity;BMP_temperature;BMP_pressure;BME280_temperature;BME280_humidity;BME280_pressure;Samples;Min_cycle;Max_cycle;Signal;HPM_P1;HPM_P2
2022/10/28 00:01:28;;;;;;;7.28;2.40;;;;;;;;;;4962116;28;20523;-75
2022/10/28 00:03:57;;;;;;;4.68;2.45;;;;;;;;;;4973730;28;20162;-76
2022/10/28 00:06:25;;;;;;;7.82;3.10;;;;;;;;;;4975344;28;20031;-75
2022/10/28 00:08:51;;;;;;;7.35;2.13;;;;;;;;;;4982200;28;20023;-75
2022/10/28 00:11:21;;;;;;;5.78;2.63;;;;;;;;;;4968942;28;20058;-75
2022/10/28 00:13:49;;;;;;;6.38;2.83;;;;;;;;;;4970271;28;20058;-75
2022/10/28 00:16:17;;;;;;;3.45;2.00;;;;;;;;;;4961854;28;20054;-75
2022/10/28 00:18:43;;;;;;;8.85;2.40;;;;;;;;;;4970871;28;20027;-75
2022/10/28 00:21:11;;;;;;;6.88;2.15;;;;;;;;;;4967220;28;20074;-75
2022/10/28 00:23:38;;;;;;;3.70;2.20;;;;;;;;;;4981636;28;20122;-75
2022/10/28 00:26:15;;;;;;;5.85;2.10;;;;;;;;;;4972708;28;20047;-76
2022/10/28 00:28:45;;;;;;;3.75;2.00;;;;;;;;;;4972579;28;20033;-75
2022/10/28 00:31:12;;;;;;;4.45;1.83;;;;;;;;;;4969185;28;20019;-75
2022/10/28 00:33:38;;;;;;;4.07;2.22;;;;;;;;;;4975400;28;20026;-75
2022/10/28 00:36:12;;;;;;;3.70;2.20;;;;;;;;;;4968725;28;20095;-75
2022/10/28 00:38:39;;;;;;;5.25;2.10;;;;;;;;;;4965660;28;20027;-77
2022/10/28 00:41:05;;;;;;;8.88;3.10;;;;;;;;;;4961706;28;20109;-77
2022/10/28 00:43:39;;;;;;;5.30;2.00;;;;;;;;;;4970496;28;20097;-77
2022/10/28 00:46:10;;;;;;;5.90;2.30;;;;;;;;;;4967974;28;20377;-77
2022/10/28 00:48:40;;;;;;;4.35;2.00;;;;;;;;;;4973317;28;20373;-77
2022/10/28 00:51:07;;;;;;;7.20;2.30;;;;;;;;;;4966447;28;20027;-74
2022/10/28 00:53:34;;;;;;;8.63;2.40;;;;;;;;;;4967489;28;20019;-77
2022/10/28 00:56:01;;;;;;;3.55;1.77;;;;;;;;;;4969579;28;20046;-77
2022/10/28 00:58:27;;;;;;;5.78;2.05;;;;;;;;;;4971658;28;20026;-74
2022/10/28 01:00:54;;;;;;;5.22;2.10;;;;;;;;;;4970777;28;20030;-75
2022/10/28 01:03:20;;;;;;;6.65;2.15;;;;;;;;;;4966542;28;20125;-76
2022/10/28 01:05:47;;;;;;;7.22;1.98;;;;;;;;;;4965314;28;20113;-74
2022/10/28 01:08:13;;;;;;;3.95;1.77;;;;;;;;;;4969081;28;20027;-77
2022/10/28 01:10:58;;;;;;;3.33;1.73;;;;;;;;;;4971849;28;20138;-77
2022/10/28 01:13:36;;;;;;;3.13;2.25;;;;;;;;;;4961786;28;20019;-77
2022/10/28 01:16:25;;;;;;;5.53;1.80;;;;;;;;;;4972122;28;20027;-77
2022/10/28 01:19:00;;;;;;;3.80;1.80;;;;;;;;;;4970196;28;20512;-77
2022/10/28 01:21:26;;;;;;;4.75;1.80;;;;;;;;;;4985509;28;20704;-75
2022/10/28 01:24:13;;;;;;;2.45;1.90;;;;;;;;;;4971614;28;20593;-75
2022/10/28 01:26:47;;;;;;;5.40;2.00;;;;;;;;;;4954509;28;20042;-75
2022/10/28 01:29:13;;;;;;;4.28;1.83;;;;;;;;;;4971082;28;20089;-75
2022/10/28 01:31:58;;;;;;;4.10;2.10;;;;;;;;;;4968590;28;21430;-75
2022/10/28 01:34:24;;;;;;;5.43;2.00;;;;;;;;;;4987176;28;20030;-76
2022/10/28 01:37:13;;;;;;;5.07;2.10;;;;;;;;;;4967230;28;20274;-77
2022/10/28 01:39:45;;;;;;;6.55;2.00;;;;;;;;;;4974854;28;20042;-76
2022/10/28 01:42:28;;;;;;;3.03;1.90;;;;;;;;;;4980248;28;20741;-76
2022/10/28 01:44:57;;;;;;;3.65;2.28;;;;;;;;;;4972663;28;20093;-77
2022/10/28 01:47:28;;;;;;;6.30;2.53;;;;;;;;;;4982533;28;20042;-76
2022/10/28 01:50:07;;;;;;;3.22;2.00;;;;;;;;;;4968097;28;20388;-76
2022/10/28 01:52:33;;;;;;;3.60;2.13;;;;;;;;;;4978742;28;20022;-76
2022/10/28 01:55:08;;;;;;;2.83;1.73;;;;;;;;;;4965290;28;20086;-75
2022/10/28 01:57:35;;;;;;;3.55;1.95;;;;;;;;;;4963245;28;20018;-75
2022/10/28 02:00:02;;;;;;;2.42;1.73;;;;;;;;;;4967520;28;20039;-74
2022/10/28 02:02:31;;;;;;;2.58;1.42;;;;;;;;;;4982215;28;20019;-76
2022/10/28 02:05:05;;;;;;;3.95;1.55;;;;;;;;;;4969847;28;20117;-76
2022/10/28 02:07:31;;;;;;;3.88;1.65;;;;;;;;;;4975342;28;20530;-76
2022/10/28 02:09:57;;;;;;;1.77;1.60;;;;;;;;;;4969221;28;20364;-76
2022/10/28 02:12:26;;;;;;;2.97;2.67;;;;;;;;;;4964858;28;20105;-75
2022/10/28 02:14:55;;;;;;;3.92;2.00;;;;;;;;;;4965763;28;20054;-75
2022/10/28 02:17:24;;;;;;;1.52;1.42;;;;;;;;;;4980582;28;20042;-76
2022/10/28 02:19:50;;;;;;;1.90;1.40;;;;;;;;;;4967428;28;20023;-76
2022/10/28 02:22:22;;;;;;;1.23;1.20;;;;;;;;;;4972620;28;20022;-76
2022/10/28 02:24:48;;;;;;;1.70;1.38;;;;;;;;;;4968098;28;20034;-76
2022/10/28 02:27:14;;;;;;;1.33;1.23;;;;;;;;;;4969130;28;20022;-77
2022/10/28 02:29:45;;;;;;;1.90;1.48;;;;;;;;;;4975773;28;20074;-76
2022/10/28 02:32:15;;;;;;;1.48;1.38;;;;;;;;;;4967321;28;20054;-73
2022/10/28 02:34:43;;;;;;;4.10;1.50;;;;;;;;;;4962835;28;20110;-74
2022/10/28 02:37:15;;;;;;;2.92;1.50;;;;;;;;;;4986001;28;20388;-74
2022/10/28 02:39:43;;;;;;;2.03;1.30;;;;;;;;;;4972569;28;20027;-74
2022/10/28 02:42:15;;;;;;;2.15;1.40;;;;;;;;;;4974200;28;20049;-74
2022/10/28 02:44:47;;;;;;;1.15;1.15;;;;;;;;;;4971590;28;20491;-75
2022/10/28 02:47:18;;;;;;;1.08;1.08;;;;;;;;;;4978608;28;20500;-74
2022/10/28 02:49:45;;;;;;;1.00;1.00;;;;;;;;;;4972573;28;20503;-74
2022/10/28 02:52:12;;;;;;;1.10;1.10;;;;;;;;;;4967676;28;20081;-75
2022/10/28 02:54:53;;;;;;;1.25;1.20;;;;;;;;;;4970166;28;20030;-75
2022/10/28 02:57:26;;;;;;;1.40;1.30;;;;;;;;;;4964164;28;20034;-76
2022/10/28 02:59:53;;;;;;;1.98;1.20;;;;;;;;;;4984618;28;20038;-75
2022/10/28 03:02:19;;;;;;;1.73;1.13;;;;;;;;;;4972657;28;20420;-75
2022/10/28 03:04:46;;;;;;;2.60;2.35;;;;;;;;;;4970087;28;20579;-76
2022/10/28 03:07:12;;;;;;;2.83;1.73;;;;;;;;;;4974407;28;20018;-76
2022/10/28 03:09:38;;;;;;;3.63;1.95;;;;;;;;;;4972060;28;20105;-76
2022/10/28 03:12:04;;;;;;;4.85;2.05;;;;;;;;;;4967784;28;20019;-75
2022/10/28 03:14:30;;;;;;;4.18;2.00;;;;;;;;;;4982059;28;20113;-75
2022/10/28 03:16:56;;;;;;;4.32;2.67;;;;;;;;;;4969274;28;20026;-76
2022/10/28 03:19:22;;;;;;;2.33;1.70;;;;;;;;;;4979039;28;20462;-75
2022/10/28 03:21:48;;;;;;;5.00;1.77;;;;;;;;;;4975131;28;20026;-76
2022/10/28 03:24:14;;;;;;;3.33;1.67;;;;;;;;;;4984610;28;20022;-74
2022/10/28 03:26:40;;;;;;;5.30;2.25;;;;;;;;;;4976079;28;20041;-76
2022/10/28 03:29:06;;;;;;;4.57;1.70;;;;;;;;;;4971466;28;20527;-75
2022/10/28 03:31:33;;;;;;;3.38;1.55;;;;;;;;;;4971461;28;20056;-76
2022/10/28 03:33:59;;;;;;;1.50;1.40;;;;;;;;;;4979376;28;20504;-76
2022/10/28 03:36:25;;;;;;;1.13;1.13;;;;;;;;;;4972261;28;20027;-74
2022/10/28 03:38:51;;;;;;;1.65;1.55;;;;;;;;;;4972876;28;20023;-74
2022/10/28 03:41:17;;;;;;;4.75;1.40;;;;;;;;;;4972531;28;20034;-75
2022/10/28 03:43:43;;;;;;;3.33;1.83;;;;;;;;;;4986693;28;20118;-74
2022/10/28 03:46:09;;;;;;;4.38;1.70;;;;;;;;;;4972467;28;20113;-74
2022/10/28 03:48:35;;;;;;;4.30;1.60;;;;;;;;;;4986136;28;20035;-74
2022/10/28 03:51:01;;;;;;;2.55;1.60;;;;;;;;;;4971774;28;20033;-74
2022/10/28 03:53:27;;;;;;;1.70;1.60;;;;;;;;;;4959994;28;20027;-73
2022/10/28 03:55:58;;;;;;;6.13;2.13;;;;;;;;;;4968857;28;20038;-74
2022/10/28 03:58:24;;;;;;;1.80;1.67;;;;;;;;;;4985636;28;20035;-74
2022/10/28 04:00:51;;;;;;;6.93;2.20;;;;;;;;;;4971467;28;20369;-74
2022/10/28 04:03:18;;;;;;;4.93;2.55;;;;;;;;;;4990741;28;20423;-74
2022/10/28 04:05:44;;;;;;;5.40;2.20;;;;;;;;;;4968962;28;20030;-74
2022/10/28 04:08:11;;;;;;;3.20;2.05;;;;;;;;;;4982749;28;20026;-74
2022/10/28 04:10:37;;;;;;;5.43;2.33;;;;;;;;;;4971424;28;20041;-74
2022/10/28 04:13:03;;;;;;;5.47;2.65;;;;;;;;;;4964982;28;20023;-74
2022/10/28 04:15:30;;;;;;;13.02;3.35;;;;;;;;;;4974303;28;20109;-74
2022/10/28 04:17:56;;;;;;;12.18;3.50;;;;;;;;;;4966779;28;20030;-72
2022/10/28 04:20:23;;;;;;;5.82;2.30;;;;;;;;;;4964562;28;20034;-73
2022/10/28 04:22:49;;;;;;;3.95;1.48;;;;;;;;;;4979416;28;20515;-74
2022/10/28 04:25:15;;;;;;;1.75;1.30;;;;;;;;;;4977358;28;20019;-73
2022/10/28 04:27:43;;;;;;;1.20;1.10;;;;;;;;;;4972723;28;20495;-76
2022/10/28 04:30:11;;;;;;;1.65;1.42;;;;;;;;;;4959148;28;20030;-74
2022/10/28 04:32:37;;;;;;;1.10;1.10;;;;;;;;;;4959488;28;20031;-74
2022/10/28 04:35:03;;;;;;;1.73;1.20;;;;;;;;;;4968965;28;20045;-74
2022/10/28 04:37:29;;;;;;;1.10;1.10;;;;;;;;;;4966660;28;20076;-73
2022/10/28 04:39:55;;;;;;;1.45;1.27;;;;;;;;;;4972720;28;20439;-74
2022/10/28 04:42:22;;;;;;;2.53;1.30;;;;;;;;;;4978721;28;20035;-74
2022/10/28 04:44:49;;;;;;;1.73;1.30;;;;;;;;;;4964085;28;20034;-73
2022/10/28 04:47:16;;;;;;;1.63;1.40;;;;;;;;;;4969211;28;20165;-73
2022/10/28 04:49:42;;;;;;;1.40;1.30;;;;;;;;;;4974356;28;20039;-73
2022/10/28 04:52:08;;;;;;;1.45;1.30;;;;;;;;;;4970531;28;20530;-73
2022/10/28 04:54:34;;;;;;;3.85;1.40;;;;;;;;;;4970938;28;20033;-73
2022/10/28 04:57:00;;;;;;;1.40;1.30;;;;;;;;;;4978501;28;20045;-73
2022/10/28 04:59:26;;;;;;;2.30;1.30;;;;;;;;;;4981887;28;20023;-73
2022/10/28 05:01:52;;;;;;;1.50;1.40;;;;;;;;;;4968883;28;20081;-73
2022/10/28 05:04:18;;;;;;;1.20;1.20;;;;;;;;;;4973173;28;20375;-73
2022/10/28 05:06:45;;;;;;;2.10;1.25;;;;;;;;;;4968608;28;20081;-74
2022/10/28 05:09:11;;;;;;;1.83;1.35;;;;;;;;;;4965950;28;20061;-74
2022/10/28 05:11:37;;;;;;;3.38;1.40;;;;;;;;;;4968757;28;20031;-74
2022/10/28 05:14:03;;;;;;;1.50;1.40;;;;;;;;;;4975096;28;20029;-74
2022/10/28 05:16:30;;;;;;;1.52;1.42;;;;;;;;;;4959485;28;20039;-74
2022/10/28 05:18:56;;;;;;;2.45;1.38;;;;;;;;;;4966983;28;20015;-73
2022/10/28 05:21:22;;;;;;;2.17;1.60;;;;;;;;;;4964649;28;20369;-73
2022/10/28 05:23:48;;;;;;;1.55;1.30;;;;;;;;;;4963501;28;20025;-74
2022/10/28 05:26:15;;;;;;;1.88;1.35;;;;;;;;;;4968359;28;20057;-75
2022/10/28 05:28:42;;;;;;;1.35;1.25;;;;;;;;;;4964639;28;20100;-74
2022/10/28 05:31:08;;;;;;;1.48;1.38;;;;;;;;;;4966125;28;20031;-75
2022/10/28 05:33:34;;;;;;;1.88;1.60;;;;;;;;;;4973383;28;20054;-74
2022/10/28 05:36:00;;;;;;;1.10;1.10;;;;;;;;;;4967830;28;20090;-74
2022/10/28 05:38:26;;;;;;;3.75;1.30;;;;;;;;;;4982876;28;20054;-73
2022/10/28 05:40:52;;;;;;;2.53;2.40;;;;;;;;;;4979873;28;20026;-74
2022/10/28 05:43:18;;;;;;;1.40;1.30;;;;;;;;;;4966771;28;20023;-74
2022/10/28 05:45:51;;;;;;;1.45;1.40;;;;;;;;;;4968558;28;20058;-74
2022/10/28 05:48:17;;;;;;;1.50;1.40;;;;;;;;;;4966948;28;20124;-74
2022/10/28 05:50:43;;;;;;;1.20;1.20;;;;;;;;;;4981256;28;20042;-74
2022/10/28 05:53:09;;;;;;;1.40;1.30;;;;;;;;;;4968545;28;20030;-74
2022/10/28 05:55:35;;;;;;;2.00;1.50;;;;;;;;;;4965846;28;20037;-74
2022/10/28 05:58:02;;;;;;;3.00;1.30;;;;;;;;;;4962718;28;20041;-74
2022/10/28 06:00:28;;;;;;;1.33;1.23;;;;;;;;;;4969673;28;20101;-75
2022/10/28 06:03:14;;;;;;;1.40;1.30;;;;;;;;;;4964953;28;20027;-74
2022/10/28 06:05:42;;;;;;;1.30;1.30;;;;;;;;;;4967824;28;20066;-74
2022/10/28 06:08:10;;;;;;;2.17;1.98;;;;;;;;;;4962680;28;20030;-75
2022/10/28 06:10:36;;;;;;;2.35;1.33;;;;;;;;;;4977811;28;20066;-75
2022/10/28 06:13:02;;;;;;;1.30;1.30;;;;;;;;;;4968237;28;20128;-74
2022/10/28 06:15:28;;;;;;;1.52;1.42;;;;;;;;;;4984688;28;20042;-74
2022/10/28 06:17:54;;;;;;;3.78;1.40;;;;;;;;;;4958558;28;20565;-75
2022/10/28 06:20:21;;;;;;;1.63;1.20;;;;;;;;;;4967598;28;20023;-74
2022/10/28 06:22:55;;;;;;;1.50;1.40;;;;;;;;;;4968707;28;20027;-74
2022/10/28 06:25:22;;;;;;;1.52;1.48;;;;;;;;;;4976761;28;20361;-74
2022/10/28 06:27:54;;;;;;;3.65;1.45;;;;;;;;;;4971046;28;20022;-74
2022/10/28 06:30:20;;;;;;;1.67;1.38;;;;;;;;;;4964430;28;20169;-74
2022/10/28 06:32:46;;;;;;;1.25;1.20;;;;;;;;;;4983277;28;20031;-73
2022/10/28 06:35:12;;;;;;;1.63;1.52;;;;;;;;;;4965830;28;20031;-74
2022/10/28 06:37:38;;;;;;;2.08;1.40;;;;;;;;;;4966265;28;20055;-74
2022/10/28 06:40:04;;;;;;;1.58;1.48;;;;;;;;;;4970193;28;20026;-74
2022/10/28 06:42:30;;;;;;;1.75;1.30;;;;;;;;;;4969255;28;20026;-74
2022/10/28 06:44:57;;;;;;;2.35;1.50;;;;;;;;;;4969772;28;20014;-74
2022/10/28 06:47:23;;;;;;;1.50;1.40;;;;;;;;;;4973148;28;20042;-75
2022/10/28 06:49:49;;;;;;;2.10;1.67;;;;;;;;;;4969698;28;20066;-75
2022/10/28 06:52:15;;;;;;;1.20;1.20;;;;;;;;;;4973976;28;20050;-74
2022/10/28 06:54:42;;;;;;;1.80;1.70;;;;;;;;;;4968647;28;20082;-74
2022/10/28 06:57:08;;;;;;;1.50;1.40;;;;;;;;;;4981205;28;20031;-74
2022/10/28 06:59:34;;;;;;;1.58;1.48;;;;;;;;;;4966728;28;20086;-74
2022/10/28 07:02:00;;;;;;;1.48;1.30;;;;;;;;;;4971406;28;20137;-74
2022/10/28 07:04:27;;;;;;;2.33;1.50;;;;;;;;;;4971444;28;20030;-74
2022/10/28 07:06:57;;;;;;;1.83;1.70;;;;;;;;;;4968879;28;20062;-75
2022/10/28 07:09:23;;;;;;;2.95;1.60;;;;;;;;;;4971102;28;20034;-75
2022/10/28 07:11:49;;;;;;;1.27;1.27;;;;;;;;;;4971214;28;20047;-75
2022/10/28 07:14:15;;;;;;;1.20;1.20;;;;;;;;;;4977251;28;20089;-74
2022/10/28 07:16:42;;;;;;;3.15;2.60;;;;;;;;;;4968653;28;20186;-74
2022/10/28 07:19:08;;;;;;;3.22;1.40;;;;;;;;;;4971959;28;20031;-74
2022/10/28 07:21:35;;;;;;;1.40;1.30;;;;;;;;;;4966766;28;20101;-74
2022/10/28 07:24:01;;;;;;;1.50;1.40;;;;;;;;;;4970945;28;20066;-75
2022/10/28 07:26:27;;;;;;;1.75;1.65;;;;;;;;;;4971092;28;20480;-75
2022/10/28 07:28:54;;;;;;;1.58;1.48;;;;;;;;;;4973085;28;20129;-74
2022/10/28 07:31:20;;;;;;;1.30;1.30;;;;;;;;;;4972289;28;20044;-75
2022/10/28 07:33:51;;;;;;;1.55;1.45;;;;;;;;;;4969620;28;20035;-74
2022/10/28 07:36:17;;;;;;;1.75;1.30;;;;;;;;;;4969122;28;20023;-74
2022/10/28 07:38:43;;;;;;;3.05;1.42;;;;;;;;;;4972439;28;20037;-74
2022/10/28 07:41:09;;;;;;;23.13;2.47;;;;;;;;;;4966162;28;20035;-74
2022/10/28 07:43:36;;;;;;;1.45;1.35;;;;;;;;;;4964594;28;20637;-74
2022/10/28 07:46:02;;;;;;;1.85;1.50;;;;;;;;;;4981636;28;20050;-74
2022/10/28 07:48:29;;;;;;;1.27;1.27;;;;;;;;;;4966759;28;20396;-74
2022/10/28 07:50:55;;;;;;;1.65;1.42;;;;;;;;;;4967873;28;20130;-75
2022/10/28 07:53:21;;;;;;;1.80;1.70;;;;;;;;;;4977806;28;20031;-78
2022/10/28 07:55:57;;;;;;;1.30;1.30;;;;;;;;;;4956652;28;20109;-75
2022/10/28 07:58:23;;;;;;;2.70;1.60;;;;;;;;;;4966952;28;20384;-74
2022/10/28 08:00:49;;;;;;;1.73;1.50;;;;;;;;;;4961788;28;20041;-73
2022/10/28 08:03:16;;;;;;;1.73;1.50;;;;;;;;;;4965820;28;20034;-74
2022/10/28 08:05:42;;;;;;;2.30;1.60;;;;;;;;;;4967037;28;20027;-74
2022/10/28 08:08:08;;;;;;;1.77;1.58;;;;;;;;;;4967738;28;20035;-73
2022/10/28 08:10:34;;;;;;;1.85;1.75;;;;;;;;;;4966498;28;20062;-74
2022/10/28 08:13:01;;;;;;;1.52;1.42;;;;;;;;;;4966094;28;20050;-75
2022/10/28 08:15:28;;;;;;;1.63;1.52;;;;;;;;;;4967721;28;20551;-74
2022/10/28 08:17:55;;;;;;;3.05;1.58;;;;;;;;;;4983015;28;20037;-75
2022/10/28 08:20:21;;;;;;;2.35;2.03;;;;;;;;;;4981105;28;20026;-75
2022/10/28 08:22:47;;;;;;;1.50;1.40;;;;;;;;;;4965523;28;20121;-74
2022/10/28 08:25:13;;;;;;;2.63;1.60;;;;;;;;;;4965837;28;20090;-75
2022/10/28 08:27:41;;;;;;;2.80;1.55;;;;;;;;;;4966047;28;20097;-75
2022/10/28 08:30:07;;;;;;;1.73;1.63;;;;;;;;;;4964839;28;20033;-74
2022/10/28 08:32:33;;;;;;;3.13;1.35;;;;;;;;;;4966970;28;20062;-74
2022/10/28 08:35:00;;;;;;;1.63;1.52;;;;;;;;;;4963138;28;20370;-75
2022/10/28 08:37:26;;;;;;;3.22;1.77;;;;;;;;;;4979908;28;20046;-75
2022/10/28 08:39:52;;;;;;;2.08;1.42;;;;;;;;;;4963795;28;20030;-75
2022/10/28 08:42:35;;;;;;;3.17;1.50;;;;;;;;;;4966782;28;20070;-75
2022/10/28 08:45:13;;;;;;;1.35;1.25;;;;;;;;;;4973441;28;20031;-75
2022/10/28 08:48:01;;;;;;;6.57;2.50;;;;;;;;;;4979503;28;20657;-74
2022/10/28 08:50:30;;;;;;;4.88;1.70;;;;;;;;;;4978430;28;20037;-74
2022/10/28 08:53:11;;;;;;;1.60;1.50;;;;;;;;;;4964222;28;20026;-74
2022/10/28 08:55:40;;;;;;;3.58;1.60;;;;;;;;;;4965385;28;20031;-74
2022/10/28 08:58:08;;;;;;;3.15;2.58;;;;;;;;;;4979486;28;20035;-74
2022/10/28 09:00:36;;;;;;;1.80;1.65;;;;;;;;;;4980076;28;20027;-74
2022/10/28 09:03:11;;;;;;;1.55;1.45;;;;;;;;;;4982102;28;20047;-74
2022/10/28 09:05:37;;;;;;;;;;;;;;;;;;4967028;28;20488;-75
2022/10/28 09:08:03;;;;;;;2.05;1.60;;;;;;;;;;4959368;28;19918;-74
2022/10/28 09:10:41;;;;;;;2.53;1.55;;;;;;;;;;4962258;28;20402;-74
2022/10/28 09:13:07;;;;;;;2.97;1.80;;;;;;;;;;4966527;28;20061;-74
2022/10/28 09:15:39;;;;;;;1.63;1.50;;;;;;;;;;4966323;28;20039;-74
2022/10/28 09:18:08;;;;;;;4.13;1.73;;;;;;;;;;4965331;28;20081;-74
2022/10/28 09:20:52;;;;;;;2.75;1.60;;;;;;;;;;4981142;28;20031;-73
2022/10/28 09:23:18;;;;;;;4.97;1.70;;;;;;;;;;4965747;28;20026;-74
2022/10/28 09:25:53;;;;;;;3.17;1.75;;;;;;;;;;4968203;28;20027;-74
2022/10/28 09:28:38;;;;;;;4.07;1.88;;;;;;;;;;4966776;28;20457;-75
2022/10/28 09:31:27;;;;;;;3.38;1.90;;;;;;;;;;4964285;28;20042;-74
2022/10/28 09:33:53;;;;;;;5.68;2.75;;;;;;;;;;4967928;28;20558;-74
2022/10/28 09:36:40;;;;;;;3.70;1.83;;;;;;;;;;4967436;28;20034;-75
2022/10/28 09:39:10;;;;;;;3.78;1.80;;;;;;;;;;4967582;28;20029;-75
2022/10/28 09:41:38;;;;;;;5.13;2.17;;;;;;;;;;4979769;28;20043;-74
2022/10/28 09:44:10;;;;;;;4.13;2.15;;;;;;;;;;4980757;28;20606;-74
2022/10/28 09:46:37;;;;;;;3.70;1.70;;;;;;;;;;4963001;28;20042;-74
2022/10/28 09:49:05;;;;;;;3.78;1.90;;;;;;;;;;4979303;28;20863;-75
2022/10/28 09:51:45;;;;;;;3.40;1.60;;;;;;;;;;4978411;28;20027;-73
2022/10/28 09:54:12;;;;;;;2.05;1.83;;;;;;;;;;4966078;28;20031;-74
2022/10/28 09:56:38;;;;;;;2.88;1.90;;;;;;;;;;4962774;28;20033;-74
2022/10/28 09:59:05;;;;;;;3.60;1.90;;;;;;;;;;4979614;28;20027;-73
2022/10/28 10:01:35;;;;;;;5.22;2.15;;;;;;;;;;4964686;28;20380;-74
2022/10/28 10:04:01;;;;;;;6.82;3.00;;;;;;;;;;4963373;28;20038;-74
2022/10/28 10:06:29;;;;;;;6.72;1.98;;;;;;;;;;4963948;28;20042;-76
2022/10/28 10:08:56;;;;;;;6.93;2.13;;;;;;;;;;4964843;28;20526;-74
2022/10/28 10:11:28;;;;;;;3.50;1.92;;;;;;;;;;4966818;28;20082;-75
2022/10/28 10:13:55;;;;;;;2.30;1.40;;;;;;;;;;4967049;28;20495;-74
2022/10/28 10:16:26;;;;;;;5.53;2.50;;;;;;;;;;4963533;28;20041;-74
2022/10/28 10:18:54;;;;;;;4.60;3.03;;;;;;;;;;4967192;28;20407;-74
2022/10/28 10:21:40;;;;;;;3.95;2.78;;;;;;;;;;4982854;28;20047;-74
2022/10/28 10:24:06;;;;;;;;;;;;;;;;;;4970845;28;20134;-75
2022/10/28 10:26:32;;;;;;;4.30;2.17;;;;;;;;;;4970583;28;20367;-76
2022/10/28 10:28:59;;;;;;;10.02;2.50;;;;;;;;;;4969340;28;20035;-74
2022/10/28 10:31:28;;;;;;;11.75;2.85;;;;;;;;;;4971393;28;20038;-74
2022/10/28 10:33:58;;;;;;;3.15;1.77;;;;;;;;;;4984483;28;20043;-75
2022/10/28 10:36:27;;;;;;;22.67;2.83;;;;;;;;;;4969972;28;20058;-73
2022/10/28 10:38:54;;;;;;;6.60;2.00;;;;;;;;;;4971395;28;20018;-74
2022/10/28 10:41:37;;;;;;;3.75;1.80;;;;;;;;;;4969329;28;20129;-73
2022/10/28 10:44:21;;;;;;;3.70;1.88;;;;;;;;;;4970283;28;20494;-75
2022/10/28 10:47:00;;;;;;;5.78;2.28;;;;;;;;;;4984010;28;20503;-74
2022/10/28 10:49:27;;;;;;;8.35;2.55;;;;;;;;;;4986226;28;20051;-73
2022/10/28 10:51:56;;;;;;;7.30;3.83;;;;;;;;;;4969119;28;20027;-74
2022/10/28 10:54:22;;;;;;;6.20;2.20;;;;;;;;;;4968222;28;20038;-74
2022/10/28 10:56:48;;;;;;;7.78;2.45;;;;;;;;;;4968228;28;20116;-73
2022/10/28 10:59:36;;;;;;;7.20;2.88;;;;;;;;;;4970998;28;20080;-74
2022/10/28 11:02:04;;;;;;;5.13;2.38;;;;;;;;;;4965787;28;20035;-74
2022/10/28 11:04:35;;;;;;;9.35;2.63;;;;;;;;;;4970838;28;20077;-74
2022/10/28 11:07:02;;;;;;;4.07;2.03;;;;;;;;;;4972025;28;20109;-73
2022/10/28 11:09:28;;;;;;;8.45;2.55;;;;;;;;;;4970187;28;20396;-75
2022/10/28 11:11:55;;;;;;;7.40;2.55;;;;;;;;;;4969800;28;20030;-75
2022/10/28 11:14:25;;;;;;;7.55;1.90;;;;;;;;;;4968288;28;20105;-75
2022/10/28 11:16:52;;;;;;;8.95;2.50;;;;;;;;;;4971080;28;20672;-74
2022/10/28 11:19:20;;;;;;;6.32;2.47;;;;;;;;;;4970244;28;20109;-76
2022/10/28 11:22:05;;;;;;;8.60;2.75;;;;;;;;;;4970083;28;20462;-75
2022/10/28 11:24:31;;;;;;;5.28;2.28;;;;;;;;;;4984458;28;20030;-76
2022/10/28 11:26:57;;;;;;;6.57;3.10;;;;;;;;;;4967614;28;20027;-74
2022/10/28 11:29:23;;;;;;;10.30;2.65;;;;;;;;;;4969420;28;20041;-75
2022/10/28 11:31:54;;;;;;;8.27;2.60;;;;;;;;;;4968628;28;20031;-76
2022/10/28 11:34:29;;;;;;;7.35;2.83;;;;;;;;;;4983683;28;20066;-74
2022/10/28 11:36:59;;;;;;;7.35;2.58;;;;;;;;;;4984617;28;20550;-75
2022/10/28 11:39:43;;;;;;;13.50;2.80;;;;;;;;;;4966784;28;20031;-74
2022/10/28 11:42:28;;;;;;;7.03;3.00;;;;;;;;;;4966490;28;20385;-75
2022/10/28 11:45:21;;;;;;;10.80;3.72;;;;;;;;;;4978028;28;20093;-75
2022/10/28 11:47:54;;;;;;;7.13;2.72;;;;;;;;;;4968078;28;20469;-75
2022/10/28 11:50:20;;;;;;;6.82;2.25;;;;;;;;;;4970636;28;20038;-76
2022/10/28 11:52:58;;;;;;;8.82;2.60;;;;;;;;;;4969600;28;20027;-74
2022/10/28 11:55:43;;;;;;;8.95;4.22;;;;;;;;;;4982833;28;20022;-74
2022/10/28 11:58:23;;;;;;;9.15;2.83;;;;;;;;;;4968414;28;20085;-74
2022/10/28 12:01:04;;;;;;;5.85;2.22;;;;;;;;;;4967706;28;20081;-75
2022/10/28 12:03:30;;;;;;;5.07;2.30;;;;;;;;;;4967213;28;20510;-78
2022/10/28 12:05:59;;;;;;;8.27;3.20;;;;;;;;;;4966123;28;20102;-75
2022/10/28 12:08:44;;;;;;;9.35;2.83;;;;;;;;;;4980103;28;20027;-75
2022/10/28 12:11:10;;;;;;;9.05;3.67;;;;;;;;;;4981484;28;20111;-76
2022/10/28 12:13:36;;;;;;;6.70;2.85;;;;;;;;;;4962656;28;20145;-75
2022/10/28 12:16:24;;;;;;;5.60;2.70;;;;;;;;;;4966234;28;20056;-77
2022/10/28 12:19:00;;;;;;;7.70;2.85;;;;;;;;;;4980853;28;20057;-75
2022/10/28 12:21:34;;;;;;;5.43;2.45;;;;;;;;;;4964146;28;20526;-75
2022/10/28 12:24:00;;;;;;;8.98;2.47;;;;;;;;;;4983760;28;20069;-75
2022/10/28 12:26:47;;;;;;;9.27;2.97;;;;;;;;;;4979369;28;20031;-75
2022/10/28 12:29:19;;;;;;;12.82;2.58;;;;;;;;;;4982706;28;20441;-74
2022/10/28 12:31:47;;;;;;;6.30;2.28;;;;;;;;;;4969051;28;20061;-75
2022/10/28 12:34:16;;;;;;;8.70;2.70;;;;;;;;;;4968153;28;20058;-75
2022/10/28 12:36:45;;;;;;;8.90;2.60;;;;;;;;;;4966867;28;20038;-75
2022/10/28 12:39:11;;;;;;;17.73;3.42;;;;;;;;;;4966986;28;20035;-75
2022/10/28 12:41:37;;;;;;;5.60;2.65;;;;;;;;;;4968113;28;20041;-76
2022/10/28 12:44:08;;;;;;;9.43;2.97;;;;;;;;;;4967225;28;20396;-75
2022/10/28 12:46:47;;;;;;;8.15;2.90;;;;;;;;;;4967639;28;20475;-74
2022/10/28 12:49:18;;;;;;;7.93;2.58;;;;;;;;;;4965645;28;20074;-77
2022/10/28 12:51:44;;;;;;;11.05;3.45;;;;;;;;;;4964438;28;20042;-74
2022/10/28 12:54:28;;;;;;;7.20;2.45;;;;;;;;;;4965081;28;20433;-74
2022/10/28 12:57:01;;;;;;;10.75;2.90;;;;;;;;;;4967677;28;20031;-76
2022/10/28 12:59:50;;;;;;;7.65;3.03;;;;;;;;;;4967283;28;20027;-77
2022/10/28 13:02:18;;;;;;;7.50;3.00;;;;;;;;;;4985038;28;20046;-75
2022/10/28 13:04:44;;;;;;;7.38;3.05;;;;;;;;;;4963701;28;20027;-75
2022/10/28 13:07:29;;;;;;;7.68;3.45;;;;;;;;;;4984165;28;20640;-77
2022/10/28 13:09:55;;;;;;;;;;;;;;;;;;4967081;28;20058;-75
2022/10/28 13:12:40;;;;;;;7.18;2.58;;;;;;;;;;4964205;28;19918;-76
2022/10/28 13:15:30;;;;;;;8.95;3.17;;;;;;;;;;4962483;28;20049;-76
2022/10/28 13:17:56;;;;;;;7.82;2.90;;;;;;;;;;4978982;28;20538;-76
2022/10/28 13:20:38;;;;;;;8.40;2.75;;;;;;;;;;4966340;28;20436;-75
2022/10/28 13:23:22;;;;;;;9.80;3.10;;;;;;;;;;4963085;28;20518;-79
2022/10/28 13:26:02;;;;;;;11.30;4.82;;;;;;;;;;4979396;28;20129;-76
2022/10/28 13:28:34;;;;;;;4.95;2.50;;;;;;;;;;4966230;28;20055;-77
2022/10/28 13:31:01;;;;;;;7.07;2.85;;;;;;;;;;4967209;28;20037;-76
2022/10/28 13:33:29;;;;;;;7.18;2.58;;;;;;;;;;4966926;28;20026;-76
2022/10/28 13:36:06;;;;;;;9.48;3.90;;;;;;;;;;4982977;28;20038;-77
2022/10/28 13:38:33;;;;;;;7.47;3.50;;;;;;;;;;4944729;28;20089;-76
2022/10/28 13:40:59;;;;;;;7.75;2.85;;;;;;;;;;4968853;28;20087;-76
2022/10/28 13:43:44;;;;;;;6.38;3.10;;;;;;;;;;4965661;28;20130;-76
2022/10/28 13:46:10;;;;;;;7.45;3.65;;;;;;;;;;4982736;28;20393;-76
2022/10/28 13:48:42;;;;;;;8.55;3.03;;;;;;;;;;4967942;28;20066;-76
2022/10/28 13:51:11;;;;;;;14.23;3.20;;;;;;;;;;4967952;28;20135;-76
2022/10/28 13:53:37;;;;;;;11.48;3.13;;;;;;;;;;4981164;28;20375;-76
2022/10/28 13:56:11;;;;;;;7.85;3.30;;;;;;;;;;4965732;28;20062;-76
2022/10/28 13:58:37;;;;;;;9.50;2.70;;;;;;;;;;4968306;28;20030;-76
2022/10/28 14:01:22;;;;;;;7.50;3.05;;;;;;;;;;4966156;28;20034;-76
2022/10/28 14:03:48;;;;;;;;;;;;;;;;;;4982113;28;20086;-74
2022/10/28 14:06:29;;;;;;;10.30;2.75;;;;;;;;;;4962248;28;20066;-76
2022/10/28 14:08:55;;;;;;;9.88;3.20;;;;;;;;;;4965711;28;20037;-76
2022/10/28 14:11:23;;;;;;;8.10;2.72;;;;;;;;;;4966587;28;20039;-77
2022/10/28 14:13:56;;;;;;;11.93;3.67;;;;;;;;;;4967031;28;20025;-77
2022/10/28 14:16:30;;;;;;;10.10;3.78;;;;;;;;;;4965361;28;20038;-76
2022/10/28 14:19:23;;;;;;;10.52;3.65;;;;;;;;;;4967270;28;20045;-75
2022/10/28 14:22:03;;;;;;;13.15;3.33;;;;;;;;;;4963547;28;20148;-76
2022/10/28 14:24:31;;;;;;;12.07;3.10;;;;;;;;;;4963009;28;20061;-76
2022/10/28 14:27:07;;;;;;;12.00;3.88;;;;;;;;;;4965492;28;20112;-76
2022/10/28 14:29:43;;;;;;;13.80;4.20;;;;;;;;;;4982236;28;20034;-75
2022/10/28 14:32:28;;;;;;;13.57;4.15;;;;;;;;;;4966517;28;20447;-75
2022/10/28 14:34:56;;;;;;;11.40;4.03;;;;;;;;;;4966019;28;20031;-77
2022/10/28 14:37:25;;;;;;;8.55;3.15;;;;;;;;;;4968908;28;20017;-76
2022/10/28 14:40:10;;;;;;;11.00;3.45;;;;;;;;;;4966898;28;20031;-74
2022/10/28 14:42:51;;;;;;;9.48;3.42;;;;;;;;;;4968157;28;20049;-76
2022/10/28 14:45:29;;;;;;;19.70;4.45;;;;;;;;;;4969369;28;20027;-76
2022/10/28 14:48:06;;;;;;;13.52;5.20;;;;;;;;;;4963649;28;20038;-75
2022/10/28 14:50:48;;;;;;;15.73;5.10;;;;;;;;;;4967759;28;20090;-75
2022/10/28 14:53:25;;;;;;;10.90;4.20;;;;;;;;;;4983158;28;20034;-76
2022/10/28 14:55:57;;;;;;;14.57;4.05;;;;;;;;;;4981667;28;20027;-76
2022/10/28 14:58:24;;;;;;;11.02;3.42;;;;;;;;;;4964852;28;20048;-76
2022/10/28 15:00:53;;;;;;;12.05;3.40;;;;;;;;;;4966363;28;20138;-76